Jump to content


AMERICAN AIRLINES FLIGHT AA6275 FLOWN ON 10-05-2017 BY CAPTAIN JIM BOERMAN

Pilot StatsCaptain Jim Boerman (LDP136) • 4,616.9 total hours • 1,400 total flights [View Logbook]
FLIGHT DETAILS
StatusReceived and approved on 2017-10-05 at 16:10:19
Origin AirportBarajas (LEMD) • Madrid, Spain (1,999 feet MSL)
Filed Flight PlanLEMD SIE UN865 DELOG UN864 NOVAN UN470 KOLEK UN480 REGHI DINIM NATD JOOPY N176A MIILS Q907 SIKBO Q905 HOCKE Q824 FNT J547 DEWIT J94 HASTE J547 PMM J94 KUBBS KORD
Destination AirportChicago-OHare Intl (KORD) • Chicago, Illinois, United States (668 feet MSL)
Alternate AirportGen Mitchell Intl (KMKE) • Milwaukee, Wisconsin, United States (723 feet MSL)
AirlineAmerican Airlines
AircraftBoeing 777-200LR (77L / B777-200LR)
FS Aircraft UsedPMDG 777-223LR American Airlines (Fictional)
Cruising AltitudeFL340
Distance Flown3,642 nautical miles
Passengers Onboard262 passengers (87.04% full)
DEPARTURE DETAILS
Time Out11:47:41
Taxi Data539,599 lbs total with 145,775 lbs of fuel onboard
Takeoff Data12:08:15 (21 minutes after leaving gate/ramp) • 536,988 lbs total • 9° pitch at 168 knots
Departure METARLEMD 051100Z 16003KT 080V210 CAVOK 25/12 Q1024 NOSIG
ARRIVAL DETAILS
Landing Data15:00:00 • 416,349 lbs total • 3° pitch doing 130 knots at a rate of -112.27 feet/minute with 21,818 lbs of fuel onboard
Time In15:08:58 (9 minutes after landing)
Ramp Weight415,642 lbs total
Total Fuel Used123,957 lbs
Total Block Time07:51:32 (7.9 hours) while 30 minutes were spent on the ground
Arrival METARKORD 051951Z 20006KT 10SM SCT110 BKN160 BKN250 24/06 A3010 RMK AO2 SLP192 T02440061
MISCELLANEOUS DETAILS
LiveDISPATCH Version4.8.3.1
FS Version
FSUIPC Version5.12
OS VersionWindows 7 32-bit
Screen Resolution1920 x 1080
Pilot's CommentsNo Comments Reported
FLIGHT MAP